Gustavus, AK

3:20 PM AKDT on April 20, 2018 (GMT -0800)
Gustavus

Weather History for PAGS - March, 2014

Change the Weather History Date:

Friday, March 28, 2014

  Actual Average Record
Temperature  
Mean Temperature 34 °F -  
Max Temperature 44 °F 42 °F 51 °F (1966)
Min Temperature 24 °F 30 °F 15 °F (1985)
Degree Days  
Heating Degree Days 31    
Moisture  
Dew Point 7 °F    
Average Humidity 34    
Maximum Humidity 59    
Minimum Humidity 18    
Precipitation  
Precipitation 0.00 in - - ()
Sea Level Pressure  
Sea Level Pressure 29.73 in    
Wind  
Wind Speed 6 mph (North)    
Max Wind Speed 13 mph    
Max Gust Speed 17 mph    
Visibility 10 miles    
Events      
Averages and records for this station are not official NWS values.
T = Trace of Precipitation, MM = Missing Value Source: NWS Daily Summary

Daily Weather History Graph

Daily Weather History Graph

Search for Another Location

Airport or City:

Astronomy

Mar. 28, 2014 Rise Set
Actual Time 6:41 AM AKDT 7:35 PM AKDT
Civil Twilight 6:00 AM AKDT 8:16 PM AKDT
Nautical Twilight 5:11 AM AKDT 9:05 PM AKDT
Astronomical Twilight 4:17 AM AKDT 10:01 PM AKDT
Moon 5:44 AM AKDT (3/28) 5:20 PM AKDT (3/28)
Length of Visible Light 14h 15m
Length of Day
12h 54m
Waning Crescent, 5% of the Moon is Illuminated
Mar 28
Waning Crescent
Mar 30
New
Apr 7
First Quarter
Apr 14
Full
Apr 21
Last Quarter

Hourly Weather History & Observations

Time (AKDT) Temp. Windchill Dew Point Humidity Pressure Visibility Wind Dir Wind Speed Gust Speed Precip Events Conditions
12:16 AM 28.4 °F 22.2 °F 10.4 °F 47% 29.85 in 10.0 mi NNW 5.8 mph - N/A   Mostly Cloudy
12:36 AM 28.4 °F 23.3 °F 8.6 °F 43% 29.84 in 10.0 mi North 4.6 mph - N/A   Mostly Cloudy
12:56 AM 28.4 °F 21.2 °F 10.4 °F 47% 29.84 in 10.0 mi NNW 6.9 mph - N/A   Overcast
1:16 AM 28.4 °F 21.2 °F 10.4 °F 47% 29.84 in 10.0 mi NW 6.9 mph - N/A   Overcast
1:36 AM 30.2 °F 21.9 °F 8.6 °F 40% 29.84 in 10.0 mi NW 9.2 mph - N/A   Overcast
2:16 AM 30.2 °F 23.4 °F 8.6 °F 40% 29.83 in 10.0 mi NNW 6.9 mph - N/A   Overcast
2:36 AM 30.2 °F 24.3 °F 8.6 °F 40% 29.83 in 10.0 mi NNW 5.8 mph - N/A   Overcast
2:56 AM 28.4 °F 21.2 °F 8.6 °F 43% 29.83 in 10.0 mi NNW 6.9 mph - N/A   Mostly Cloudy
3:16 AM 28.4 °F 23.3 °F 8.6 °F 43% 29.83 in 10.0 mi NNW 4.6 mph - N/A   Mostly Cloudy
3:36 AM 28.4 °F 22.2 °F 8.6 °F 43% 29.83 in 10.0 mi NNW 5.8 mph - N/A   Mostly Cloudy
3:56 AM 28.4 °F 22.2 °F 10.4 °F 47% 29.83 in 10.0 mi NNW 5.8 mph - N/A   Partly Cloudy
4:16 AM 28.4 °F 22.2 °F 8.6 °F 43% 29.82 in 10.0 mi NNW 5.8 mph - N/A   Clear
4:36 AM 26.6 °F 20.0 °F 8.6 °F 47% 29.82 in 10.0 mi NNW 5.8 mph - N/A   Clear
4:56 AM 26.6 °F 20.0 °F 10.4 °F 51% 29.81 in 10.0 mi NW 5.8 mph - N/A   Partly Cloudy
5:16 AM 26.6 °F 22.6 °F 10.4 °F 51% 29.81 in 10.0 mi NNW 3.5 mph - N/A   Clear
5:36 AM 26.6 °F 21.2 °F 10.4 °F 51% 29.81 in 10.0 mi NNW 4.6 mph - N/A   Clear
5:56 AM 26.6 °F 22.6 °F 10.4 °F 51% 29.81 in 10.0 mi NNW 3.5 mph - N/A   Clear
6:16 AM 26.6 °F 19.1 °F 10.4 °F 51% 29.80 in 10.0 mi NNW 6.9 mph - N/A   Clear
6:36 AM 24.8 °F 17.9 °F 12.2 °F 59% 29.80 in 10.0 mi NNW 5.8 mph - N/A   Clear
6:56 AM 24.8 °F 17.9 °F 12.2 °F 59% 29.80 in 10.0 mi NNW 5.8 mph - N/A   Clear
7:16 AM 24.8 °F 16.9 °F 12.2 °F 59% 29.79 in 10.0 mi NW 6.9 mph - N/A   Clear
7:36 AM 28.4 °F 22.2 °F 12.2 °F 51% 29.79 in 10.0 mi NNW 5.8 mph - N/A   Clear
7:56 AM 28.4 °F 22.2 °F 14.0 °F 55% 29.78 in 10.0 mi NNW 5.8 mph - N/A   Clear
8:16 AM 30.2 °F 24.3 °F 15.8 °F 55% 29.78 in 10.0 mi NNW 5.8 mph - N/A   Clear
8:36 AM 32.0 °F 26.4 °F 14.0 °F 48% 29.78 in 10.0 mi NNW 5.8 mph - N/A   Clear
8:56 AM 33.8 °F 26.4 °F 14.0 °F 44% 29.78 in 10.0 mi NNW 9.2 mph - N/A   Clear
9:16 AM 35.6 °F 29.2 °F 12.2 °F 38% 29.78 in 10.0 mi NNW 8.1 mph - N/A   Clear
9:36 AM 37.4 °F 30.3 °F 12.2 °F 36% 29.77 in 10.0 mi NNW 10.4 mph - N/A   Clear
9:56 AM 37.4 °F 30.3 °F 10.4 °F 33% 29.76 in 10.0 mi NW 10.4 mph - N/A   Clear
10:16 AM 39.2 °F 33.0 °F 10.4 °F 31% 29.76 in 10.0 mi NW 9.2 mph - N/A   Clear
11:36 AM 41.0 °F 39.0 °F 3.2 °F 21% 29.75 in 10.0 mi NE 3.5 mph - N/A   Clear
11:56 AM 41.0 °F 34.7 °F 3.2 °F 21% 29.74 in 10.0 mi North 10.4 mph - N/A   Clear
12:16 PM 42.8 °F 37.5 °F 3.2 °F 19% 29.73 in 10.0 mi NE 9.2 mph - N/A   Clear
12:36 PM 42.8 °F 37.5 °F 3.2 °F 19% 29.73 in 10.0 mi NNE 9.2 mph - N/A   Clear
12:56 PM 42.8 °F - 3.2 °F 19% 29.72 in 10.0 mi Calm Calm - N/A   Clear
1:16 PM 42.8 °F 37.5 °F 3.2 °F 19% 29.72 in 10.0 mi NE 9.2 mph - N/A   Clear
1:36 PM 42.8 °F 40.1 °F 3.2 °F 19% 29.71 in 10.0 mi East 4.6 mph - N/A   Clear
1:56 PM 44.6 °F 40.2 °F 3.2 °F 18% 29.70 in 10.0 mi NNE 8.1 mph - N/A   Clear
2:16 PM 42.8 °F 38.0 °F 3.2 °F 19% 29.70 in 10.0 mi NE 8.1 mph - N/A   Clear
2:36 PM 44.6 °F 40.7 °F 3.2 °F 18% 29.69 in 10.0 mi East 6.9 mph - N/A   Clear
2:56 PM 44.6 °F 39.7 °F 3.2 °F 18% 29.69 in 10.0 mi ENE 9.2 mph - N/A   Clear
3:16 PM 44.6 °F 40.2 °F 3.2 °F 18% 29.69 in 10.0 mi ENE 8.1 mph - N/A   Clear
3:36 PM 44.6 °F 38.8 °F 3.2 °F 18% 29.68 in 10.0 mi NE 11.5 mph - N/A   Clear
3:56 PM 44.6 °F 39.2 °F 3.2 °F 18% 29.68 in 10.0 mi ENE 10.4 mph 17.3 mph N/A   Clear
4:16 PM 44.6 °F 39.2 °F 3.2 °F 18% 29.67 in 10.0 mi ENE 10.4 mph - N/A   Clear
4:36 PM 44.6 °F 40.2 °F 3.2 °F 18% 29.67 in 10.0 mi East 8.1 mph - N/A   Clear
4:56 PM 42.8 °F 37.0 °F 3.2 °F 19% 29.67 in 10.0 mi NE 10.4 mph - N/A   Clear
5:16 PM 42.8 °F 36.2 °F 3.2 °F 19% 29.66 in 10.0 mi NE 12.7 mph 16.1 mph N/A   Clear
5:36 PM 42.8 °F 37.5 °F 3.2 °F 19% 29.66 in 10.0 mi NE 9.2 mph - N/A   Clear
5:56 PM 42.8 °F 38.6 °F 3.2 °F 19% 29.66 in 10.0 mi NNE 6.9 mph - N/A   Clear
6:16 PM 42.8 °F 37.5 °F 3.2 °F 19% 29.66 in 10.0 mi NE 9.2 mph - N/A   Clear
6:36 PM 41.0 °F 33.9 °F 3.2 °F 21% 29.66 in 10.0 mi NE 12.7 mph 17.3 mph N/A   Clear
6:56 PM 41.0 °F 35.8 °F 3.2 °F 21% 29.65 in 10.0 mi NE 8.1 mph - N/A   Clear
7:16 PM 39.2 °F - 3.2 °F 22% 29.65 in 10.0 mi Calm Calm - N/A   Clear
7:36 PM 37.4 °F - 6.8 °F 28% 29.65 in 10.0 mi Calm Calm - N/A   Clear
7:56 PM 35.6 °F 31.7 °F 6.8 °F 30% 29.65 in 10.0 mi North 4.6 mph - N/A   Clear
8:16 PM 37.4 °F - 6.8 °F 28% 29.65 in 10.0 mi Calm Calm - N/A   Clear
8:36 PM 35.6 °F - 6.8 °F 30% 29.65 in 10.0 mi Calm Calm - N/A   Clear
8:56 PM 35.6 °F - 5.0 °F 28% 29.65 in 10.0 mi Calm Calm - N/A   Clear
9:16 PM 33.8 °F - 5.0 °F 30% 29.65 in 10.0 mi Calm Calm - N/A   Clear
9:36 PM 33.8 °F 30.8 °F 6.8 °F 32% 29.66 in 10.0 mi North 3.5 mph - N/A   Clear
9:56 PM 32.0 °F 27.5 °F 8.6 °F 38% 29.65 in 10.0 mi NW 4.6 mph - N/A   Clear
10:16 PM 32.0 °F 26.4 °F 8.6 °F 38% 29.65 in 10.0 mi WNW 5.8 mph - N/A   Clear
10:36 PM 30.2 °F 24.3 °F 8.6 °F 40% 29.65 in 10.0 mi NNW 5.8 mph - N/A   Clear
10:56 PM 30.2 °F 24.3 °F 8.6 °F 40% 29.65 in 10.0 mi NNW 5.8 mph - N/A   Clear
11:16 PM 28.4 °F 24.6 °F 8.6 °F 43% 29.65 in 10.0 mi NNW 3.5 mph - N/A   Clear
11:36 PM 28.4 °F - 8.6 °F 43% 29.65 in 10.0 mi Calm Calm - N/A   Clear
11:56 PM 28.4 °F 24.6 °F 8.6 °F 43% 29.65 in 10.0 mi NW 3.5 mph - N/A   Clear